Time;durP1;ratioP1;P1;durP2;ratioP2;P2;SDS_P1;SDS_P2;PMS_P1;PMS_P2;Temp;Humidity;BMP_temperature;BMP_pressure;BME280_temperature;BME280_humidity;BME280_pressure;Samples;Min_cycle;Max_cycle;Signal;HPM_P1;HPM_P2
2023/07/30 00:02:21;;;;;;;2.80;1.13;;;18.80;97.60;;;;;;4968345;28;20017;-84
2023/07/30 00:04:47;;;;;;;2.08;1.10;;;18.70;97.60;;;;;;4970903;28;20801;-83
2023/07/30 00:07:13;;;;;;;3.22;1.20;;;18.70;97.60;;;;;;4961817;28;20729;-83
2023/07/30 00:09:40;;;;;;;3.20;1.02;;;18.50;98.40;;;;;;4950969;28;20485;-84
2023/07/30 00:12:07;;;;;;;2.00;1.00;;;18.70;97.70;;;;;;4952372;28;20137;-82
2023/07/30 00:14:33;;;;;;;2.22;0.93;;;18.70;97.70;;;;;;4969715;28;20041;-83
2023/07/30 00:16:59;;;;;;;1.95;1.00;;;18.60;97.70;;;;;;4957663;28;20030;-83
2023/07/30 00:19:25;;;;;;;2.45;1.10;;;18.60;97.70;;;;;;4973080;28;20038;-82
2023/07/30 00:21:51;;;;;;;2.10;1.10;;;18.60;97.80;;;;;;4949761;28;20037;-83
2023/07/30 00:24:17;;;;;;;3.50;1.20;;;18.50;97.80;;;;;;4964655;28;20033;-81
2023/07/30 00:26:44;;;;;;;5.13;1.15;;;18.60;97.80;;;;;;4967486;28;20030;-84
2023/07/30 00:29:09;;;;;;;2.90;1.42;;;18.50;97.80;;;;;;4965400;28;20311;-83
2023/07/30 00:31:35;;;;;;;5.03;1.30;;;18.50;97.90;;;;;;4961412;28;20026;-83
2023/07/30 00:34:01;;;;;;;3.75;1.38;;;18.50;98.00;;;;;;4956464;28;20286;-82
2023/07/30 00:36:27;;;;;;;2.65;1.30;;;18.50;98.10;;;;;;4953495;28;20022;-84
2023/07/30 00:38:53;;;;;;;2.37;1.13;;;18.40;98.30;;;;;;4960562;28;20029;-83
2023/07/30 00:41:19;;;;;;;3.78;1.30;;;18.40;98.30;;;;;;4968654;28;20377;-82
2023/07/30 00:43:45;;;;;;;3.43;1.27;;;18.40;98.40;;;;;;4959417;28;20043;-83
2023/07/30 00:46:12;;;;;;;3.85;1.20;;;17.50;98.80;;;;;;4964926;28;20669;-82
2023/07/30 00:48:38;;;;;;;4.63;1.20;;;;;;;;;;4975892;28;20023;-81
2023/07/30 00:51:04;;;;;;;2.95;1.30;;;18.40;98.30;;;;;;4964644;28;20113;-80
2023/07/30 00:53:30;;;;;;;1.77;0.97;;;18.30;98.60;;;;;;4969938;28;20501;-82
2023/07/30 00:55:57;;;;;;;3.72;1.20;;;18.40;98.60;;;;;;4960590;28;20034;-84
2023/07/30 00:58:23;;;;;;;2.92;1.10;;;18.30;98.60;;;;;;4947524;28;20412;-82
2023/07/30 01:00:52;;;;;;;1.27;0.90;;;18.30;98.50;;;;;;4960585;28;20551;-83
2023/07/30 01:03:18;;;;;;;2.38;1.30;;;18.50;99.20;;;;;;4980459;23;20063;-81
2023/07/30 01:05:45;;;;;;;2.80;0.90;;;18.30;98.50;;;;;;4944803;28;20042;-81
2023/07/30 01:08:11;;;;;;;3.38;1.23;;;18.30;98.50;;;;;;4939517;28;20030;-80
2023/07/30 01:10:38;;;;;;;1.70;1.05;;;18.20;99.40;;;;;;4919728;28;20036;-84
2023/07/30 01:13:05;;;;;;;3.53;1.10;;;18.20;98.60;;;;;;4913864;28;20015;-84
2023/07/30 01:15:31;;;;;;;5.43;1.67;;;18.20;98.70;;;;;;4938815;28;20035;-83
2023/07/30 01:17:57;;;;;;;2.92;1.00;;;18.20;98.70;;;;;;4929417;28;20217;-85
2023/07/30 01:20:23;;;;;;;4.28;1.20;;;18.20;98.80;;;;;;4947589;28;20392;-84
2023/07/30 01:22:48;;;;;;;2.67;1.10;;;18.20;98.80;;;;;;4942034;28;20035;-83
2023/07/30 01:25:15;;;;;;;3.50;1.23;;;18.20;98.90;;;;;;4935443;28;20094;-84
2023/07/30 01:27:48;;;;;;;3.55;1.23;;;18.10;99.00;;;;;;4915702;28;20106;-85
2023/07/30 01:30:21;;;;;;;3.50;1.30;;;18.10;99.00;;;;;;4920329;28;20210;-83
2023/07/30 01:32:52;;;;;;;3.58;1.27;;;18.10;99.00;;;;;;4933001;28;20031;-84
2023/07/30 01:35:24;;;;;;;3.28;1.25;;;18.20;99.30;;;;;;4931999;28;20103;-84
2023/07/30 01:37:51;;;;;;;3.17;1.20;;;18.10;99.30;;;;;;4940618;28;20027;-83
2023/07/30 01:40:17;;;;;;;3.35;1.38;;;18.20;99.50;;;;;;4934533;28;20141;-84
2023/07/30 01:42:43;;;;;;;2.53;1.00;;;18.20;99.60;;;;;;4920385;28;20051;-82
2023/07/30 01:45:09;;;;;;;2.40;1.00;;;18.20;99.70;;;;;;4911225;28;20353;-85
2023/07/30 01:47:34;;;;;;;3.17;1.30;;;18.20;99.70;;;;;;4940852;28;20039;-86
2023/07/30 01:50:00;;;;;;;2.73;1.00;;;18.20;99.80;;;;;;4922965;28;20062;-84
2023/07/30 01:52:26;;;;;;;2.55;1.00;;;18.20;99.80;;;;;;4927276;28;20294;-84
2023/07/30 01:54:52;;;;;;;2.70;1.20;;;18.20;99.80;;;;;;4937756;28;20561;-83
2023/07/30 01:57:17;;;;;;;2.20;1.10;;;18.30;99.90;;;;;;4930280;28;20234;-83
2023/07/30 01:59:43;;;;;;;4.47;1.50;;;18.30;99.90;;;;;;4927293;28;20054;-84
2023/07/30 02:02:09;;;;;;;1.98;1.10;;;18.20;99.90;;;;;;4912523;28;20321;-85
2023/07/30 02:04:35;;;;;;;2.65;1.10;;;18.30;99.90;;;;;;4934624;28;20598;-83
2023/07/30 02:07:00;;;;;;;2.50;1.17;;;18.30;99.80;;;;;;4931601;28;20512;-83
2023/07/30 02:09:26;;;;;;;3.33;1.37;;;18.30;99.70;;;;;;4937118;28;20113;-84
2023/07/30 02:11:52;;;;;;;1.97;1.10;;;18.30;99.70;;;;;;4921048;28;20279;-84
2023/07/30 02:14:20;;;;;;;2.63;1.00;;;18.20;99.70;;;;;;4934532;28;20321;-83
2023/07/30 02:16:46;;;;;;;4.27;1.13;;;18.20;99.50;;;;;;4920107;28;20043;-82
2023/07/30 02:19:12;;;;;;;3.45;1.15;;;18.20;99.70;;;;;;4927188;28;20548;-85
2023/07/30 02:21:42;;;;;;;3.27;1.20;;;18.20;99.70;;;;;;4938262;28;20042;-84
2023/07/30 02:24:10;;;;;;;1.60;0.90;;;18.20;99.80;;;;;;4935251;28;20294;-84
2023/07/30 02:26:37;;;;;;;3.25;1.10;;;18.20;99.90;;;;;;4933815;28;20035;-82
2023/07/30 02:29:02;;;;;;;2.78;1.00;;;18.10;99.90;;;;;;4928369;28;20473;-83
2023/07/30 02:31:28;;;;;;;3.67;1.30;;;18.10;99.90;;;;;;4922834;28;20034;-83
2023/07/30 02:33:54;;;;;;;2.63;1.10;;;18.10;99.90;;;;;;4928165;28;20523;-83
2023/07/30 02:36:19;;;;;;;3.30;0.90;;;18.10;99.90;;;;;;4934422;28;20819;-83
2023/07/30 02:38:45;;;;;;;2.25;1.00;;;18.20;99.90;;;;;;4937465;28;20133;-84
2023/07/30 02:41:11;;;;;;;1.40;0.90;;;18.10;99.90;;;;;;4924099;28;20386;-84
2023/07/30 02:43:36;;;;;;;4.65;1.25;;;18.10;99.90;;;;;;4926487;28;20035;-85
2023/07/30 02:46:02;;;;;;;2.60;1.00;;;18.10;99.90;;;;;;4918538;28;20034;-82
2023/07/30 02:48:28;;;;;;;2.50;1.20;;;18.10;99.90;;;;;;4952534;28;20043;-84
2023/07/30 02:50:54;;;;;;;2.78;1.40;;;18.10;99.90;;;;;;4927285;28;20039;-85
2023/07/30 02:53:19;;;;;;;2.60;0.90;;;18.10;99.90;;;;;;4931568;28;20524;-84
2023/07/30 02:55:45;;;;;;;2.05;0.90;;;18.10;99.90;;;;;;4938792;28;20535;-84
2023/07/30 02:58:11;;;;;;;4.40;1.20;;;18.10;99.90;;;;;;4914964;28;20071;-84
2023/07/30 03:00:37;;;;;;;3.30;0.90;;;18.10;99.90;;;;;;4925924;28;20043;-83
2023/07/30 03:03:03;;;;;;;3.73;1.20;;;18.20;99.90;;;;;;4911152;28;20489;-83
2023/07/30 03:05:29;;;;;;;2.78;1.13;;;18.10;99.90;;;;;;4930761;28;20477;-84
2023/07/30 03:07:54;;;;;;;2.77;1.10;;;18.10;99.90;;;;;;4934345;28;20027;-85
2023/07/30 03:10:20;;;;;;;4.28;1.00;;;18.20;99.90;;;;;;4920589;28;20023;-86
2023/07/30 03:12:46;;;;;;;4.67;1.10;;;18.20;99.90;;;;;;4934444;28;20382;-83
2023/07/30 03:15:12;;;;;;;5.00;1.07;;;18.20;99.90;;;;;;4926424;28;20325;-83
2023/07/30 03:17:37;;;;;;;2.90;1.20;;;18.20;99.90;;;;;;4918305;28;20382;-84
2023/07/30 03:20:04;;;;;;;2.20;1.00;;;18.20;99.90;;;;;;4928048;28;20048;-84
2023/07/30 03:22:29;;;;;;;1.63;1.00;;;18.30;99.90;;;;;;4931547;28;20061;-83
2023/07/30 03:24:55;;;;;;;3.40;1.35;;;18.30;99.90;;;;;;4939603;28;20327;-83
2023/07/30 03:27:21;;;;;;;1.53;0.93;;;18.30;99.90;;;;;;4932145;28;20142;-83
2023/07/30 03:29:46;;;;;;;4.03;1.10;;;18.30;99.90;;;;;;4938243;28;20045;-84
2023/07/30 03:32:12;;;;;;;4.53;1.00;;;18.30;99.90;;;;;;4904502;28;20035;-84
2023/07/30 03:34:38;;;;;;;4.00;1.20;;;18.30;99.90;;;;;;4937738;28;20031;-83
2023/07/30 03:37:04;;;;;;;3.33;1.20;;;18.40;99.90;;;;;;4922130;28;20412;-84
2023/07/30 03:39:30;;;;;;;4.80;1.00;;;18.40;99.90;;;;;;4936348;28;20035;-83
2023/07/30 03:41:55;;;;;;;2.75;1.10;;;18.40;99.90;;;;;;4917751;28;20073;-83
2023/07/30 03:44:21;;;;;;;3.63;1.20;;;18.40;99.90;;;;;;4930843;28;20706;-84
2023/07/30 03:46:47;;;;;;;4.25;1.08;;;18.50;99.90;;;;;;4929260;28;20031;-82
2023/07/30 03:49:12;;;;;;;3.10;1.03;;;18.50;99.90;;;;;;4914620;28;20039;-83
2023/07/30 03:51:38;;;;;;;3.65;1.15;;;18.50;99.90;;;;;;4929088;28;20067;-84
2023/07/30 03:54:04;;;;;;;2.10;1.10;;;18.50;99.90;;;;;;4931187;28;20106;-83
2023/07/30 03:56:30;;;;;;;4.43;1.30;;;18.50;99.90;;;;;;4942058;28;20050;-83
2023/07/30 03:58:56;;;;;;;3.15;1.00;;;18.50;99.90;;;;;;4934052;28;20045;-84
2023/07/30 04:01:22;;;;;;;3.60;1.30;;;18.50;99.90;;;;;;4927870;28;20317;-83
2023/07/30 04:03:48;;;;;;;4.07;1.00;;;18.50;99.90;;;;;;4921972;28;20039;-83
2023/07/30 04:06:14;;;;;;;2.28;1.02;;;18.50;99.90;;;;;;4935303;28;20120;-82
2023/07/30 04:08:39;;;;;;;3.47;1.20;;;18.60;99.90;;;;;;4926600;28;20042;-83
2023/07/30 04:11:05;;;;;;;4.03;1.35;;;18.60;99.90;;;;;;4933371;28;20027;-84
2023/07/30 04:13:31;;;;;;;6.27;1.17;;;18.60;99.90;;;;;;4937898;28;20469;-83
2023/07/30 04:15:57;;;;;;;6.03;1.45;;;18.60;99.90;;;;;;4911624;28;20028;-83
2023/07/30 04:18:23;;;;;;;4.35;1.20;;;18.70;99.90;;;;;;4931540;28;20062;-83
2023/07/30 04:20:48;;;;;;;4.87;1.20;;;18.60;99.90;;;;;;4919480;28;20366;-83
2023/07/30 04:23:14;;;;;;;3.03;0.95;;;19.20;99.90;;;;;;4926291;28;20249;-83
2023/07/30 04:25:40;;;;;;;4.87;1.10;;;18.60;99.90;;;;;;4919982;28;20800;-81
2023/07/30 04:28:07;;;;;;;3.67;1.10;;;18.60;99.90;;;;;;4940649;28;20037;-83
2023/07/30 04:30:33;;;;;;;4.80;1.10;;;18.70;99.90;;;;;;4938169;28;20389;-84
2023/07/30 04:32:58;;;;;;;3.90;1.10;;;18.60;99.90;;;;;;4934189;28;20042;-83
2023/07/30 04:35:24;;;;;;;2.55;0.90;;;18.60;99.90;;;;;;4922919;28;20280;-83
2023/07/30 04:37:50;;;;;;;3.63;0.90;;;18.70;99.90;;;;;;4920302;28;20059;-83
2023/07/30 04:40:16;;;;;;;4.00;1.10;;;18.70;99.90;;;;;;4925998;28;20035;-85
2023/07/30 04:42:41;;;;;;;4.07;1.17;;;18.60;99.90;;;;;;4932382;28;20401;-83
2023/07/30 04:45:07;;;;;;;3.15;1.20;;;18.60;99.90;;;;;;4931072;28;20043;-84
2023/07/30 04:47:33;;;;;;;2.53;0.90;;;18.60;99.90;;;;;;4929365;28;20039;-83
2023/07/30 04:49:59;;;;;;;3.40;1.17;;;18.60;99.90;;;;;;4918868;28;20881;-82
2023/07/30 04:52:24;;;;;;;3.53;1.20;;;18.60;99.90;;;;;;4942499;28;20503;-82
2023/07/30 04:54:50;;;;;;;5.10;1.08;;;18.60;99.90;;;;;;4928628;28;20446;-83
2023/07/30 04:57:16;;;;;;;2.70;1.10;;;18.60;99.90;;;;;;4939317;28;20105;-83
2023/07/30 04:59:41;;;;;;;2.60;1.00;;;18.60;99.90;;;;;;4937764;28;21114;-84
2023/07/30 05:02:07;;;;;;;4.93;1.10;;;18.60;99.90;;;;;;4936149;28;20043;-84
2023/07/30 05:04:33;;;;;;;3.72;1.02;;;18.60;99.90;;;;;;4925895;28;20325;-82
2023/07/30 05:06:59;;;;;;;2.60;1.00;;;18.60;99.90;;;;;;4924459;28;20053;-82
2023/07/30 05:09:24;;;;;;;6.15;1.42;;;18.60;99.90;;;;;;4917616;28;20105;-84
2023/07/30 05:11:50;;;;;;;4.17;1.00;;;18.50;99.90;;;;;;4928406;28;20520;-83
2023/07/30 05:14:16;;;;;;;3.00;0.90;;;18.60;99.90;;;;;;4937333;28;20795;-85
2023/07/30 05:16:42;;;;;;;5.10;1.17;;;18.60;99.90;;;;;;4932901;28;22867;-85
2023/07/30 05:19:08;;;;;;;3.00;0.90;;;18.60;99.90;;;;;;4927151;28;20502;-84
2023/07/30 05:21:33;;;;;;;3.83;1.10;;;18.60;99.90;;;;;;4911015;28;20344;-83
2023/07/30 05:23:59;;;;;;;4.15;1.10;;;18.60;99.90;;;;;;4935222;28;20501;-84
2023/07/30 05:26:25;;;;;;;4.50;1.10;;;18.60;99.90;;;;;;4925880;28;20035;-83
2023/07/30 05:28:51;;;;;;;4.28;1.27;;;18.60;99.90;;;;;;4934675;28;20041;-84
2023/07/30 05:31:16;;;;;;;4.00;1.13;;;18.60;99.90;;;;;;4920098;28;20033;-83
2023/07/30 05:33:42;;;;;;;4.38;1.40;;;18.60;99.90;;;;;;4923434;28;20039;-85
2023/07/30 05:36:08;;;;;;;3.83;0.93;;;18.60;99.90;;;;;;4939007;28;20047;-83
2023/07/30 05:38:34;;;;;;;4.93;1.20;;;18.60;99.90;;;;;;4910155;28;20122;-84
2023/07/30 05:40:59;;;;;;;4.53;1.13;;;18.60;99.90;;;;;;4930746;28;20054;-84
2023/07/30 05:43:25;;;;;;;3.97;1.23;;;18.70;99.90;;;;;;4933978;28;20097;-82
2023/07/30 05:45:51;;;;;;;4.73;1.20;;;18.60;99.90;;;;;;4921748;29;20054;-84
2023/07/30 05:48:16;;;;;;;4.22;1.20;;;18.70;99.90;;;;;;4932209;28;20779;-82
2023/07/30 05:50:42;;;;;;;5.03;1.20;;;18.70;99.90;;;;;;4930425;28;20349;-83
2023/07/30 05:53:08;;;;;;;2.50;1.10;;;18.70;99.90;;;;;;4935385;28;20043;-84
2023/07/30 05:55:34;;;;;;;5.50;1.27;;;18.70;99.90;;;;;;4902701;28;20035;-84
2023/07/30 05:58:00;;;;;;;5.47;1.00;;;18.80;99.90;;;;;;4936881;28;20025;-82
2023/07/30 06:00:25;;;;;;;3.55;1.20;;;18.80;99.90;;;;;;4932966;28;20118;-85
2023/07/30 06:02:51;;;;;;;4.57;1.13;;;18.80;99.90;;;;;;4934245;28;20034;-83
2023/07/30 06:05:17;;;;;;;4.25;1.52;;;18.80;99.90;;;;;;4927864;28;20070;-83
2023/07/30 06:07:43;;;;;;;4.17;1.20;;;18.90;99.90;;;;;;4944176;28;20044;-85
2023/07/30 06:10:08;;;;;;;5.55;1.40;;;18.90;99.90;;;;;;4919262;28;20039;-85
2023/07/30 06:12:34;;;;;;;4.83;1.40;;;19.00;99.90;;;;;;4942464;28;20047;-85
2023/07/30 06:15:00;;;;;;;3.97;1.10;;;18.90;99.90;;;;;;4936393;28;20529;-84
2023/07/30 06:17:26;;;;;;;3.83;1.20;;;19.00;99.90;;;;;;4936166;28;20035;-84
2023/07/30 06:19:51;;;;;;;6.03;1.25;;;19.00;99.90;;;;;;4907881;28;20074;-86
2023/07/30 06:22:17;;;;;;;3.15;1.10;;;19.00;99.90;;;;;;4936647;28;20117;-83
2023/07/30 06:24:43;;;;;;;4.30;1.10;;;19.00;99.90;;;;;;4914260;28;20627;-84
2023/07/30 06:27:09;;;;;;;4.80;1.00;;;19.10;99.90;;;;;;4928217;28;20381;-82
2023/07/30 06:29:36;;;;;;;6.32;1.48;;;19.10;99.90;;;;;;4919830;28;20031;-86
2023/07/30 06:32:02;;;;;;;4.20;1.37;;;19.10;99.90;;;;;;4935499;28;20398;-86
2023/07/30 06:34:27;;;;;;;3.58;0.95;;;19.10;99.90;;;;;;4928910;28;20126;-85
2023/07/30 06:36:53;;;;;;;8.03;1.60;;;19.10;99.90;;;;;;4916662;28;20493;-84
2023/07/30 06:39:19;;;;;;;4.47;1.53;;;19.10;99.90;;;;;;4905896;28;20314;-82
2023/07/30 06:41:44;;;;;;;5.88;1.45;;;19.10;99.90;;;;;;4920377;28;20681;-84
2023/07/30 06:44:10;;;;;;;4.23;1.20;;;19.10;99.90;;;;;;4937850;28;20031;-84
2023/07/30 06:46:36;;;;;;;4.78;1.40;;;19.20;99.90;;;;;;4933869;28;20065;-84
2023/07/30 06:49:01;;;;;;;4.43;1.20;;;19.20;99.90;;;;;;4941790;28;20023;-85
2023/07/30 06:51:27;;;;;;;5.47;1.48;;;19.20;99.90;;;;;;4923038;28;20257;-83
2023/07/30 06:53:53;;;;;;;3.20;1.07;;;19.30;99.90;;;;;;4935638;28;20600;-86
2023/07/30 06:56:19;;;;;;;5.25;1.42;;;19.30;99.90;;;;;;4917251;28;20039;-84
2023/07/30 06:58:45;;;;;;;4.30;1.27;;;19.30;99.90;;;;;;4919509;28;20034;-83
2023/07/30 07:01:10;;;;;;;4.25;1.40;;;19.30;99.90;;;;;;4929784;28;20035;-83
2023/07/30 07:03:36;;;;;;;5.27;1.37;;;19.40;99.90;;;;;;4939506;28;20127;-84
2023/07/30 07:06:02;;;;;;;3.60;1.20;;;19.30;99.90;;;;;;4913719;28;20046;-84
2023/07/30 07:08:28;;;;;;;4.33;1.50;;;19.40;99.90;;;;;;4934203;28;20022;-84
2023/07/30 07:10:54;;;;;;;4.97;1.30;;;19.40;99.90;;;;;;4918923;28;20125;-84
2023/07/30 07:13:19;;;;;;;4.25;1.60;;;19.50;99.90;;;;;;4930003;28;20023;-84
2023/07/30 07:15:45;;;;;;;5.07;1.63;;;19.50;99.90;;;;;;4931079;28;20033;-87
2023/07/30 07:18:11;;;;;;;4.18;1.60;;;19.60;99.90;;;;;;4937706;28;20066;-87
2023/07/30 07:20:37;;;;;;;5.33;1.50;;;19.60;99.90;;;;;;4936451;28;20118;-85
2023/07/30 07:23:04;;;;;;;5.35;1.55;;;19.70;99.90;;;;;;4918314;28;20646;-84
2023/07/30 07:25:29;;;;;;;7.03;2.00;;;19.70;99.90;;;;;;4935160;28;21346;-83
2023/07/30 07:27:55;;;;;;;5.82;1.92;;;19.80;99.90;;;;;;4916343;28;20261;-86
2023/07/30 07:30:21;;;;;;;6.40;1.80;;;19.90;99.90;;;;;;4935216;28;20070;-86
2023/07/30 07:32:50;;;;;;;5.85;1.45;;;20.00;99.90;;;;;;4933723;28;20059;-85
2023/07/30 07:35:16;;;;;;;4.20;1.48;;;20.10;99.90;;;;;;4939071;28;20512;-85
2023/07/30 07:37:42;;;;;;;4.53;1.67;;;20.30;99.90;;;;;;4918955;28;20059;-85
2023/07/30 07:40:11;;;;;;;7.00;1.90;;;20.30;99.90;;;;;;4934814;28;20114;-85
2023/07/30 07:42:38;;;;;;;5.18;1.60;;;20.50;99.90;;;;;;4914118;28;20031;-83
2023/07/30 07:45:05;;;;;;;4.43;1.40;;;20.60;99.90;;;;;;4925647;28;20475;-84
2023/07/30 07:47:31;;;;;;;5.10;1.50;;;20.60;99.90;;;;;;4925758;28;20035;-83
2023/07/30 07:49:57;;;;;;;6.70;2.00;;;20.70;99.90;;;;;;4938136;28;20256;-86
2023/07/30 07:52:22;;;;;;;3.73;1.37;;;20.80;99.90;;;;;;4936646;28;20102;-88
2023/07/30 07:54:48;;;;;;;4.03;1.40;;;21.40;99.90;;;;;;4924935;28;20136;-84
2023/07/30 07:57:14;;;;;;;6.90;1.67;;;21.00;99.90;;;;;;4922649;28;20039;-85
2023/07/30 07:59:41;;;;;;;4.68;1.48;;;21.10;99.90;;;;;;4906756;28;20049;-85
2023/07/30 08:02:07;;;;;;;5.03;1.50;;;21.20;99.90;;;;;;4911925;28;20892;-86
2023/07/30 08:04:33;;;;;;;4.00;1.43;;;21.40;99.90;;;;;;4940555;28;20083;-82
2023/07/30 08:07:03;;;;;;;6.05;1.40;;;21.50;99.90;;;;;;4933204;28;20131;-85
2023/07/30 08:09:29;;;;;;;6.53;1.80;;;21.70;99.90;;;;;;4911371;28;20341;-86
2023/07/30 08:11:55;;;;;;;4.43;1.43;;;21.80;99.90;;;;;;4935047;28;20630;-86
2023/07/30 08:14:20;;;;;;;6.68;1.45;;;21.90;99.90;;;;;;4902398;28;20036;-86
2023/07/30 08:16:46;;;;;;;3.03;1.45;;;21.90;99.90;;;;;;4914347;28;20031;-85
2023/07/30 08:19:12;;;;;;;5.23;1.40;;;21.90;99.90;;;;;;4938753;28;20027;-86
2023/07/30 08:21:38;;;;;;;5.65;1.38;;;21.90;99.90;;;;;;4921881;28;20285;-84
2023/07/30 08:24:04;;;;;;;2.67;1.27;;;21.80;99.90;;;;;;4941070;28;20524;-83
2023/07/30 08:26:31;;;;;;;3.67;1.40;;;21.80;99.90;;;;;;4915633;28;20133;-85
2023/07/30 08:28:57;;;;;;;4.97;1.27;;;21.80;99.90;;;;;;4922232;28;20114;-87
2023/07/30 08:31:23;;;;;;;2.97;1.50;;;21.90;99.90;;;;;;4913911;28;20590;-84
2023/07/30 08:33:49;;;;;;;4.57;1.40;;;21.90;99.90;;;;;;4920042;28;20686;-86
2023/07/30 08:36:14;;;;;;;4.65;1.40;;;22.00;99.90;;;;;;4942170;28;20037;-87
2023/07/30 08:38:40;;;;;;;6.20;1.47;;;22.00;99.90;;;;;;4933465;28;20115;-89
2023/07/30 08:41:06;;;;;;;4.07;1.30;;;22.10;99.90;;;;;;4930201;28;20287;-84
2023/07/30 08:43:32;;;;;;;3.40;1.23;;;22.10;99.90;;;;;;4926996;28;20050;-83
2023/07/30 08:45:59;;;;;;;3.93;1.10;;;22.20;99.90;;;;;;4904808;28;20123;-84
2023/07/30 08:48:26;;;;;;;3.17;1.00;;;22.20;99.90;;;;;;4912179;28;20035;-84
2023/07/30 08:50:56;;;;;;;4.20;1.10;;;22.30;99.90;;;;;;4937118;28;20420;-85
2023/07/30 08:53:24;;;;;;;4.57;1.13;;;22.40;99.90;;;;;;4936282;28;20031;-84
2023/07/30 08:55:51;;;;;;;3.53;1.10;;;22.40;99.90;;;;;;4925958;28;20107;-84
2023/07/30 08:58:18;;;;;;;2.13;0.90;;;22.50;99.90;;;;;;4941179;28;20063;-85
2023/07/30 09:00:45;;;;;;;4.30;1.20;;;22.60;99.90;;;;;;4897350;28;25828;-87
2023/07/30 09:03:14;;;;;;;5.03;1.20;;;22.70;99.90;;;;;;4918775;28;20037;-83
2023/07/30 09:05:40;;;;;;;2.30;1.00;;;22.60;99.90;;;;;;4925212;28;20769;-84
2023/07/30 09:08:06;;;;;;;3.93;1.10;;;22.60;99.90;;;;;;4931476;28;20234;-83
2023/07/30 09:10:32;;;;;;;2.50;1.00;;;22.50;99.90;;;;;;4936029;28;20065;-83
2023/07/30 09:12:58;;;;;;;3.27;0.90;;;22.50;99.90;;;;;;4910902;28;20413;-84
2023/07/30 09:15:32;;;;;;;2.97;1.10;;;22.50;99.90;;;;;;4940797;28;20493;-84
2023/07/30 09:17:59;;;;;;;1.95;0.98;;;22.40;99.00;;;;;;4912802;28;20134;-83
2023/07/30 09:20:25;;;;;;;2.42;1.00;;;22.40;99.90;;;;;;4943993;28;20576;-84
2023/07/30 09:22:51;;;;;;;1.90;0.80;;;22.30;99.80;;;;;;4936519;28;20071;-84
2023/07/30 09:25:20;;;;;;;1.83;0.80;;;22.30;98.80;;;;;;4929103;28;21162;-85
2023/07/30 09:27:56;;;;;;;1.95;0.70;;;22.20;98.10;;;;;;4914209;28;20031;-84
2023/07/30 09:30:23;;;;;;;1.98;0.82;;;22.00;97.30;;;;;;4932691;28;20035;-84
2023/07/30 09:32:53;;;;;;;1.92;0.80;;;21.90;98.70;;;;;;4905038;28;20090;-84
2023/07/30 09:35:20;;;;;;;1.10;0.80;;;21.90;98.20;;;;;;4917190;28;20024;-84
2023/07/30 09:37:46;;;;;;;2.40;0.70;;;21.80;99.00;;;;;;4923464;28;20045;-83
2023/07/30 09:40:14;;;;;;;2.35;0.70;;;21.80;99.60;;;;;;4930367;28;20609;-87
2023/07/30 09:42:45;;;;;;;1.60;0.70;;;21.80;99.80;;;;;;4923124;28;20019;-82
2023/07/30 09:45:25;;;;;;;2.45;0.95;;;21.80;99.40;;;;;;4933107;28;20367;-86
2023/07/30 09:47:53;;;;;;;1.93;0.60;;;21.30;98.70;;;;;;4933458;28;20675;-83
2023/07/30 09:50:19;;;;;;;2.47;0.80;;;21.80;99.60;;;;;;4914460;28;20024;-83
2023/07/30 09:52:45;;;;;;;1.58;0.80;;;21.80;99.70;;;;;;4906978;28;20141;-84
2023/07/30 09:55:11;;;;;;;3.85;0.95;;;21.80;99.70;;;;;;4945818;28;20039;-84
2023/07/30 09:57:38;;;;;;;2.00;0.93;;;21.80;99.80;;;;;;4935697;28;20038;-83
2023/07/30 10:00:05;;;;;;;2.23;0.70;;;21.80;99.70;;;;;;4935655;28;20048;-82
2023/07/30 10:02:35;;;;;;;2.88;1.00;;;21.80;99.70;;;;;;4920459;28;20139;-83
2023/07/30 10:05:03;;;;;;;2.80;0.80;;;21.80;99.80;;;;;;4918027;28;20345;-84
2023/07/30 10:07:30;;;;;;;1.35;0.70;;;21.80;99.90;;;;;;4940845;28;20026;-84
2023/07/30 10:10:01;;;;;;;3.13;0.80;;;21.90;99.90;;;;;;4924170;28;20706;-84
2023/07/30 10:12:34;;;;;;;2.13;0.70;;;21.90;99.90;;;;;;4918674;28;20161;-81
2023/07/30 10:15:01;;;;;;;3.25;1.00;;;22.00;99.90;;;;;;4927539;28;20058;-83
2023/07/30 10:17:28;;;;;;;3.65;1.20;;;22.10;99.90;;;;;;4918954;28;20027;-84
2023/07/30 10:19:54;;;;;;;2.92;1.00;;;22.20;99.90;;;;;;4916764;28;20468;-83
2023/07/30 10:22:24;;;;;;;1.50;0.93;;;22.30;99.90;;;;;;4925134;28;20058;-83
2023/07/30 10:25:07;;;;;;;2.97;0.93;;;22.50;99.90;;;;;;4916635;28;20683;-79
2023/07/30 10:27:39;;;;;;;2.35;1.00;;;22.50;99.90;;;;;;4928057;28;20035;-80
2023/07/30 10:30:13;;;;;;;3.47;1.10;;;22.90;99.90;;;;;;4922185;28;20126;-79
2023/07/30 10:33:00;;;;;;;2.90;1.00;;;23.20;99.90;;;;;;4925688;28;20031;-80
2023/07/30 10:35:43;;;;;;;2.20;1.05;;;23.60;99.90;;;;;;4913259;28;20086;-80
2023/07/30 10:38:34;;;;;;;4.10;1.40;;;25.10;99.90;;;;;;4928321;28;20143;-78
2023/07/30 10:41:16;;;;;;;2.20;1.00;;;24.60;99.90;;;;;;4928614;28;20370;-87
2023/07/30 10:43:49;;;;;;;3.25;1.10;;;24.90;99.90;;;;;;4932848;28;20652;-83
2023/07/30 10:46:17;;;;;;;2.28;0.90;;;25.00;99.50;;;;;;4920461;28;20562;-84
2023/07/30 10:48:45;;;;;;;2.42;0.90;;;25.00;99.80;;;;;;4934519;28;20031;-86
2023/07/30 10:51:14;;;;;;;2.63;1.00;;;24.90;99.90;;;;;;4916757;28;20244;-83
2023/07/30 10:53:45;;;;;;;3.47;1.00;;;24.90;99.90;;;;;;4925792;28;20027;-85
2023/07/30 10:56:13;;;;;;;3.67;1.00;;;24.90;99.90;;;;;;4921217;28;20492;-85
2023/07/30 10:58:39;;;;;;;3.28;1.30;;;24.90;99.90;;;;;;4927623;28;20481;-85
2023/07/30 11:01:06;;;;;;;2.92;1.10;;;25.00;99.90;;;;;;4912297;28;20034;-84
2023/07/30 11:03:33;;;;;;;3.10;1.20;;;25.30;99.90;;;;;;4923673;28;20329;-84
2023/07/30 11:05:59;;;;;;;5.00;1.13;;;25.50;99.90;;;;;;4918217;28;20038;-84
2023/07/30 11:08:42;;;;;;;3.83;1.10;;;25.60;99.90;;;;;;4922165;28;20126;-85
2023/07/30 11:11:09;;;;;;;4.68;1.20;;;25.80;99.30;;;;;;4917192;28;20023;-82
2023/07/30 11:13:41;;;;;;;2.85;1.20;;;25.90;99.90;;;;;;4925829;28;20035;-85
2023/07/30 11:16:08;;;;;;;2.50;1.00;;;26.10;99.90;;;;;;4931802;28;20042;-82
2023/07/30 11:18:35;;;;;;;2.83;1.00;;;26.40;99.90;;;;;;4922434;28;20035;-84
2023/07/30 11:21:04;;;;;;;2.50;1.10;;;26.60;99.90;;;;;;4896035;28;20098;-84
2023/07/30 11:23:29;;;;;;;3.25;1.00;;;26.80;99.90;;;;;;4932066;28;20320;-84
2023/07/30 11:25:55;;;;;;;2.53;1.00;;;26.90;99.60;;;;;;4923719;28;20028;-85
2023/07/30 11:28:29;;;;;;;3.25;1.00;;;26.80;98.50;;;;;;4900912;28;20580;-83
2023/07/30 11:30:57;;;;;;;2.65;0.95;;;26.70;95.90;;;;;;4932703;28;20390;-83
2023/07/30 11:33:23;;;;;;;2.40;1.00;;;26.60;97.40;;;;;;4923514;28;20255;-84
2023/07/30 11:35:49;;;;;;;4.30;0.90;;;26.40;97.80;;;;;;4930892;28;20047;-84
2023/07/30 11:38:14;;;;;;;3.40;0.90;;;26.30;97.60;;;;;;4917289;28;20670;-83
2023/07/30 11:40:40;;;;;;;1.83;0.90;;;26.30;98.30;;;;;;4912880;28;21967;-85
2023/07/30 11:43:06;;;;;;;2.13;0.80;;;26.30;99.40;;;;;;4926023;28;20378;-82
2023/07/30 11:45:32;;;;;;;2.95;1.05;;;26.40;99.90;;;;;;4910872;28;20047;-80
2023/07/30 11:48:10;;;;;;;2.27;0.90;;;26.50;99.20;;;;;;4941818;28;20019;-79
2023/07/30 11:51:02;;;;;;;4.97;1.10;;;26.50;94.20;;;;;;4906920;28;20035;-85
2023/07/30 11:53:49;;;;;;;3.10;1.00;;;26.40;93.10;;;;;;4919071;28;20051;-83
2023/07/30 11:56:22;;;;;;;2.50;1.05;;;26.40;93.90;;;;;;4938085;28;20106;-84
2023/07/30 11:58:49;;;;;;;4.33;1.10;;;26.30;96.50;;;;;;4935322;28;20063;-85
2023/07/30 12:01:15;;;;;;;2.55;0.85;;;26.20;96.10;;;;;;4931332;28;20063;-85
2023/07/30 12:03:41;;;;;;;2.63;1.00;;;26.10;97.50;;;;;;4920554;28;20130;-84
2023/07/30 12:06:09;;;;;;;2.47;0.90;;;26.10;98.40;;;;;;4937535;28;20097;-84
2023/07/30 12:08:35;;;;;;;3.50;1.30;;;26.30;99.00;;;;;;4926605;28;20023;-86
2023/07/30 12:11:09;;;;;;;2.42;1.20;;;26.60;99.90;;;;;;4939767;28;20114;-85
2023/07/30 12:13:43;;;;;;;3.20;1.00;;;26.90;97.40;;;;;;4940203;28;20031;-83
2023/07/30 12:16:11;;;;;;;2.75;1.17;;;27.20;99.10;;;;;;4941799;28;20188;-85
2023/07/30 12:18:37;;;;;;;2.45;1.10;;;27.50;99.90;;;;;;4942423;28;20039;-84
2023/07/30 12:21:06;;;;;;;2.03;0.70;;;27.90;99.90;;;;;;4933662;28;20036;-85
2023/07/30 12:23:32;;;;;;;3.28;1.10;;;28.10;99.70;;;;;;4922426;28;20094;-82
2023/07/30 12:25:58;;;;;;;2.45;0.95;;;28.50;99.30;;;;;;4933946;28;20445;-86
2023/07/30 12:28:24;;;;;;;2.70;1.00;;;28.70;98.70;;;;;;4946885;28;20035;-83
2023/07/30 12:30:49;;;;;;;1.98;0.90;;;28.90;98.10;;;;;;4907726;28;20045;-88
2023/07/30 12:33:16;;;;;;;2.17;0.90;;;29.10;97.50;;;;;;4923816;28;20327;-82
2023/07/30 12:35:42;;;;;;;3.23;1.07;;;29.20;97.60;;;;;;4924766;28;20275;-86
2023/07/30 12:38:08;;;;;;;2.15;1.20;;;29.30;97.30;;;;;;4888534;28;20249;-86
2023/07/30 12:40:33;;;;;;;2.67;1.00;;;29.50;96.00;;;;;;4918584;28;20102;-86
2023/07/30 12:43:03;;;;;;;2.17;0.80;;;29.60;96.20;;;;;;4920458;28;20409;-86
2023/07/30 12:45:32;;;;;;;2.22;1.10;;;29.70;95.10;;;;;;4908871;28;20031;-87
2023/07/30 12:47:57;;;;;;;1.60;1.00;;;29.90;95.10;;;;;;4909076;28;20158;-85